createdAt,value
2023-03-20T00:02:23.033Z,101075.02
2023-03-20T00:04:55.372Z,101073.83
2023-03-20T00:07:30.879Z,101072.96
2023-03-20T00:10:02.799Z,101070.39
2023-03-20T00:12:52.009Z,101069.04
2023-03-20T00:15:25.009Z,101073.36
2023-03-20T00:17:53.386Z,101072.85
2023-03-20T00:20:28.391Z,101067.86
2023-03-20T00:22:58.110Z,101067.69
2023-03-20T00:25:26.882Z,101061.15
2023-03-20T00:27:56.738Z,101057.37
2023-03-20T00:30:29.719Z,101057.05
2023-03-20T00:32:58.771Z,101056.02
2023-03-20T00:35:29.897Z,101051.73
2023-03-20T00:38:04.002Z,101046.40
2023-03-20T00:40:35.699Z,101046.23
2023-03-20T00:43:05.096Z,101039.88
2023-03-20T00:45:34.456Z,101037.14
2023-03-20T00:48:03.799Z,101039.04
2023-03-20T00:50:32.182Z,101036.64
2023-03-20T00:53:01.878Z,101037.85
2023-03-20T00:55:30.460Z,101038.70
2023-03-20T00:58:01.598Z,101038.54
2023-03-20T01:00:43.606Z,101040.77
2023-03-20T01:03:15.658Z,101042.48
2023-03-20T01:05:44.649Z,101044.20
2023-03-20T01:08:15.067Z,101039.91
2023-03-20T01:10:47.496Z,101035.61
2023-03-20T01:13:25.092Z,101032.52
2023-03-20T01:15:54.125Z,101026.69
2023-03-20T01:18:23.174Z,101028.06
2023-03-20T01:20:53.154Z,101026.52
2023-03-20T01:23:23.131Z,101023.25
2023-03-20T01:25:54.788Z,101022.91
2023-03-20T01:28:24.024Z,101023.60
2023-03-20T01:30:52.909Z,101024.11
2023-03-20T01:33:41.772Z,101021.70
2023-03-20T01:36:12.137Z,101020.16
2023-03-20T01:38:40.528Z,101016.19
2023-03-20T01:41:22.979Z,101015.17
2023-03-20T01:43:51.730Z,101017.92
2023-03-20T01:46:25.765Z,101014.31
2023-03-20T01:49:00.515Z,101009.32
2023-03-20T01:51:33.166Z,101013.80
2023-03-20T01:54:10.422Z,101017.92
2023-03-20T01:56:54.458Z,101015.52
2023-03-20T02:00:01.750Z,101011.04
2023-03-20T02:02:32.091Z,101018.44
2023-03-20T02:05:03.207Z,101027.03
2023-03-20T02:07:32.108Z,101027.88
2023-03-20T02:10:13.577Z,101028.41
2023-03-20T02:12:48.104Z,101028.92
2023-03-20T02:15:20.558Z,101030.98
2023-03-20T02:18:11.812Z,101036.48
2023-03-20T02:21:22.155Z,101034.92
2023-03-20T02:24:04.245Z,101037.69
2023-03-20T02:26:44.320Z,101036.83
2023-03-20T02:29:16.939Z,101033.04
2023-03-20T02:32:00.521Z,101035.27
2023-03-20T02:34:29.835Z,101031.83
2023-03-20T02:37:21.992Z,101030.98
2023-03-20T02:39:56.640Z,101029.08
2023-03-20T02:42:58.336Z,101030.95
2023-03-20T02:45:34.184Z,101030.09
2023-03-20T02:48:40.754Z,101025.27
2023-03-20T02:51:40.124Z,101026.98
2023-03-20T02:54:18.488Z,101025.59
2023-03-20T02:56:52.619Z,101021.29
2023-03-20T02:59:49.456Z,101018.19
2023-03-20T03:02:24.771Z,101012.67
2023-03-20T03:05:00.202Z,101008.04
2023-03-20T03:07:33.000Z,101003.04
2023-03-20T03:10:07.060Z,101001.31
2023-03-20T03:12:38.218Z,100995.13
2023-03-20T03:15:36.456Z,100992.36
2023-03-20T03:18:07.764Z,100988.93
2023-03-20T03:20:38.225Z,100988.93
2023-03-20T03:23:06.871Z,100987.22
2023-03-20T03:25:37.944Z,100984.30
2023-03-20T03:28:13.800Z,100987.77
2023-03-20T03:30:45.364Z,100988.80
2023-03-20T03:33:21.277Z,100987.06
2023-03-20T03:35:55.432Z,100987.60
2023-03-20T03:38:49.161Z,100985.89
2023-03-20T03:41:17.342Z,100986.90
2023-03-20T03:43:52.253Z,100986.55
2023-03-20T03:46:25.665Z,100986.73
2023-03-20T03:48:57.159Z,100987.77
2023-03-20T03:51:28.325Z,100985.70
2023-03-20T03:54:12.151Z,100991.20
2023-03-20T03:56:41.701Z,100992.73
2023-03-20T03:59:36.242Z,100995.64
2023-03-20T04:02:05.938Z,100992.90
2023-03-20T04:04:37.327Z,100989.29
2023-03-20T04:07:05.715Z,100992.89
2023-03-20T04:09:35.170Z,100996.14
2023-03-20T04:12:29.659Z,100994.59
2023-03-20T04:14:57.962Z,100990.80
2023-03-20T04:17:28.103Z,100991.83
2023-03-20T04:19:58.093Z,100991.95
2023-03-20T04:22:27.087Z,100992.92
2023-03-20T04:24:57.276Z,100996.48
2023-03-20T04:27:29.195Z,101000.10
2023-03-20T04:29:58.322Z,101002.01
2023-03-20T04:32:47.526Z,100999.11
2023-03-20T04:35:21.563Z,100999.13
2023-03-20T04:37:54.970Z,100995.23
2023-03-20T04:40:23.332Z,100999.02
2023-03-20T04:42:52.680Z,100997.47
2023-03-20T04:45:21.215Z,100996.63
2023-03-20T04:47:55.171Z,100991.52
2023-03-20T04:50:24.671Z,100995.16
2023-03-20T04:52:53.797Z,100987.29
2023-03-20T04:55:23.295Z,100985.59
2023-03-20T04:57:52.170Z,100989.71
2023-03-20T05:00:20.646Z,100986.81
2023-03-20T05:02:49.324Z,100983.91
2023-03-20T05:05:18.297Z,100988.72
2023-03-20T05:07:52.455Z,100987.66
2023-03-20T05:10:32.274Z,100985.58
2023-03-20T05:13:07.887Z,100983.65
2023-03-20T05:15:56.677Z,100986.02
2023-03-20T05:18:45.656Z,100991.30
2023-03-20T05:21:35.123Z,100991.92
2023-03-20T05:24:27.601Z,100991.15
2023-03-20T05:27:33.424Z,100985.17
2023-03-20T05:30:17.070Z,100983.84
2023-03-20T05:33:06.867Z,100982.32
2023-03-20T05:35:44.691Z,100982.52
2023-03-20T05:38:36.968Z,100984.43
2023-03-20T05:41:18.416Z,100980.68
2023-03-20T05:44:04.556Z,100977.17
2023-03-20T05:46:45.842Z,100981.24
2023-03-20T05:49:19.798Z,100983.23
2023-03-20T05:52:17.048Z,100984.01
2023-03-20T05:55:04.822Z,100983.73
2023-03-20T05:57:46.881Z,100985.02
2023-03-20T06:00:29.759Z,100990.94
2023-03-20T06:03:24.355Z,100990.29
2023-03-20T06:06:07.039Z,100990.23
2023-03-20T06:08:36.840Z,100981.36
2023-03-20T06:11:05.352Z,100981.60
2023-03-20T06:13:36.549Z,100975.12
2023-03-20T06:16:09.055Z,100979.54
2023-03-20T06:18:39.380Z,100977.90
2023-03-20T06:21:09.496Z,100981.02
2023-03-20T06:23:38.727Z,100980.19
2023-03-20T06:26:07.124Z,100985.33
2023-03-20T06:28:46.121Z,100988.80
2023-03-20T06:31:16.689Z,100988.69
2023-03-20T06:33:45.610Z,100987.34
2023-03-20T06:36:14.539Z,100987.73
2023-03-20T06:38:44.071Z,100984.56
2023-03-20T06:41:24.587Z,100989.75
2023-03-20T06:44:05.038Z,100991.98
2023-03-20T06:46:52.315Z,100990.44
2023-03-20T06:49:21.544Z,100990.33
2023-03-20T06:51:50.451Z,100989.90
2023-03-20T06:54:26.340Z,100987.52
2023-03-20T06:56:54.983Z,100985.49
2023-03-20T06:59:24.225Z,100988.81
2023-03-20T07:01:57.269Z,100980.77
2023-03-20T07:04:27.759Z,100981.04
2023-03-20T07:07:02.182Z,100980.14
2023-03-20T07:09:33.396Z,100980.52
2023-03-20T07:12:03.010Z,100980.11
2023-03-20T07:14:32.322Z,100978.23
2023-03-20T07:17:05.767Z,100973.21
2023-03-20T07:19:38.127Z,100973.24
2023-03-20T07:22:08.152Z,100973.08
2023-03-20T07:24:40.694Z,100967.84
2023-03-20T07:27:14.555Z,100970.58
2023-03-20T07:29:43.586Z,100971.17
2023-03-20T07:32:14.472Z,100966.54
2023-03-20T07:34:51.042Z,100968.33
2023-03-20T07:37:20.426Z,100969.41
2023-03-20T07:40:01.180Z,100962.81
2023-03-20T07:42:36.107Z,100962.69
2023-03-20T07:45:17.066Z,100964.05
2023-03-20T07:47:48.686Z,100953.15
2023-03-20T07:50:17.318Z,100951.21
2023-03-20T07:52:49.475Z,100946.08
2023-03-20T07:55:18.696Z,100942.92
2023-03-20T07:57:49.765Z,100937.02
2023-03-20T08:00:20.131Z,100936.95
2023-03-20T08:02:51.891Z,100935.59
2023-03-20T08:05:22.038Z,100932.27
2023-03-20T08:07:51.510Z,100928.14
2023-03-20T08:10:20.043Z,100925.85
2023-03-20T08:12:48.622Z,100925.85
2023-03-20T08:15:17.380Z,100927.02
2023-03-20T08:17:45.939Z,100929.49
2023-03-20T08:20:16.412Z,100928.77
2023-03-20T08:22:44.931Z,100929.78
2023-03-20T08:25:13.534Z,100933.80
2023-03-20T08:27:42.226Z,100937.73
2023-03-20T08:30:11.107Z,100937.42
2023-03-20T08:32:59.177Z,100936.58
2023-03-20T08:35:33.199Z,100933.05
2023-03-20T08:38:02.142Z,100934.07
2023-03-20T08:40:30.994Z,100930.77
2023-03-20T08:42:59.465Z,100925.66
2023-03-20T08:45:33.160Z,100924.41
2023-03-20T08:48:01.936Z,100919.38
2023-03-20T08:50:34.617Z,100920.82
2023-03-20T08:53:03.045Z,100919.27
2023-03-20T08:55:31.252Z,100913.89
2023-03-20T08:58:00.679Z,100912.80
2023-03-20T09:00:29.362Z,100912.58
2023-03-20T09:02:57.988Z,100908.58
2023-03-20T09:05:27.495Z,100906.64
2023-03-20T09:07:55.948Z,100897.81
2023-03-20T09:10:24.640Z,100897.96
2023-03-20T09:12:53.039Z,100894.44
2023-03-20T09:15:23.778Z,100892.97
2023-03-20T09:17:55.626Z,100885.27
2023-03-20T09:20:24.589Z,100883.17
2023-03-20T09:22:54.094Z,100881.80
2023-03-20T09:25:22.317Z,100876.57
2023-03-20T09:27:57.483Z,100873.89
2023-03-20T09:30:26.126Z,100871.52
2023-03-20T09:32:55.785Z,100867.48
2023-03-20T09:35:24.251Z,100868.36
2023-03-20T09:37:52.863Z,100871.64
2023-03-20T09:40:40.962Z,100866.46
2023-03-20T09:43:37.626Z,100865.64
2023-03-20T09:46:49.796Z,100865.88
2023-03-20T09:49:42.744Z,100860.48
2023-03-20T09:52:32.844Z,100866.61
2023-03-20T09:55:08.176Z,100862.95
2023-03-20T09:57:40.090Z,100854.14
2023-03-20T10:00:17.790Z,100853.73
2023-03-20T10:03:01.293Z,100848.11
2023-03-20T10:05:31.530Z,100846.27
2023-03-20T10:08:01.966Z,100840.11
2023-03-20T10:10:47.153Z,100844.51
2023-03-20T10:13:37.709Z,100839.16
2023-03-20T10:16:22.734Z,100835.88
2023-03-20T10:19:24.975Z,100830.43
2023-03-20T10:22:02.186Z,100823.66
2023-03-20T10:24:36.586Z,100823.04
2023-03-20T10:27:34.853Z,100824.02
2023-03-20T10:30:27.165Z,100822.96
2023-03-20T10:33:07.852Z,100818.17
2023-03-20T10:35:43.646Z,100812.92
2023-03-20T10:38:49.192Z,100812.11
2023-03-20T10:41:19.250Z,100814.92
2023-03-20T10:43:51.614Z,100806.55
2023-03-20T10:46:35.757Z,100797.53
2023-03-20T10:49:19.097Z,100788.34
2023-03-20T10:52:00.263Z,100786.34
2023-03-20T10:54:34.653Z,100785.05
2023-03-20T10:57:04.797Z,100778.86
2023-03-20T10:59:38.954Z,100772.69
2023-03-20T11:02:12.692Z,100769.04
2023-03-20T11:04:41.081Z,100764.23
2023-03-20T11:07:12.213Z,100764.44
2023-03-20T11:09:40.822Z,100770.14
2023-03-20T11:12:20.890Z,100762.20
2023-03-20T11:14:54.362Z,100762.23
2023-03-20T11:17:23.038Z,100761.77
2023-03-20T11:19:51.481Z,100759.33
2023-03-20T11:22:23.588Z,100749.23
2023-03-20T11:24:54.316Z,100746.95
2023-03-20T11:27:28.506Z,100741.49
2023-03-20T11:29:59.688Z,100740.57
2023-03-20T11:32:36.293Z,100734.52
2023-03-20T11:35:20.628Z,100731.38
2023-03-20T11:37:52.240Z,100731.37
2023-03-20T11:40:25.952Z,100724.38
2023-03-20T11:43:06.495Z,100723.96
2023-03-20T11:45:39.255Z,100720.79
2023-03-20T11:48:23.755Z,100720.05
2023-03-20T11:51:04.444Z,100713.19
2023-03-20T11:53:46.398Z,100714.13
2023-03-20T11:56:23.110Z,100709.34
2023-03-20T11:59:04.937Z,100699.73
2023-03-20T12:01:50.936Z,100700.67
2023-03-20T12:04:28.248Z,100694.23
2023-03-20T12:07:12.864Z,100691.70
2023-03-20T12:10:06.506Z,100690.07
2023-03-20T12:12:37.171Z,100687.19
2023-03-20T12:15:17.277Z,100681.45
2023-03-20T12:18:02.827Z,100676.83
2023-03-20T12:20:41.877Z,100671.23
2023-03-20T12:23:12.175Z,100674.98
2023-03-20T12:26:07.452Z,100674.61
2023-03-20T12:28:41.818Z,100671.41
2023-03-20T12:31:19.293Z,100662.66
2023-03-20T12:34:06.595Z,100657.59
2023-03-20T12:36:39.697Z,100653.60
2023-03-20T12:39:35.407Z,100655.98
2023-03-20T12:42:35.821Z,100651.21
2023-03-20T12:45:26.696Z,100646.98
2023-03-20T12:48:22.590Z,100648.27
2023-03-20T12:51:03.085Z,100644.15
2023-03-20T12:54:00.510Z,100641.45
2023-03-20T12:56:48.341Z,100636.13
2023-03-20T12:59:25.352Z,100632.22
2023-03-20T13:01:57.691Z,100632.67
2023-03-20T13:04:45.128Z,100629.80
2023-03-20T13:07:29.580Z,100626.52
2023-03-20T13:10:04.067Z,100626.09
2023-03-20T13:12:37.515Z,100624.50
2023-03-20T13:15:30.459Z,100619.81
2023-03-20T13:18:05.419Z,100617.23
2023-03-20T13:20:54.458Z,100609.05
2023-03-20T13:23:48.631Z,100616.12
2023-03-20T13:26:39.222Z,100614.77
2023-03-20T13:29:19.279Z,100608.41
2023-03-20T13:31:50.528Z,100607.74
2023-03-20T13:34:32.125Z,100603.54
2023-03-20T13:37:23.891Z,100596.77
2023-03-20T13:39:52.969Z,100590.57
2023-03-20T13:42:22.270Z,100590.23
2023-03-20T13:44:51.347Z,100588.00
2023-03-20T13:47:22.293Z,100594.94
2023-03-20T13:50:03.968Z,100586.81
2023-03-20T13:52:46.057Z,100581.25
2023-03-20T13:55:43.520Z,100579.80
2023-03-20T13:58:22.765Z,100572.27
2023-03-20T14:01:03.057Z,100573.48
2023-03-20T14:03:38.679Z,100571.23
2023-03-20T14:06:32.645Z,100571.92
2023-03-20T14:09:37.157Z,100573.48
2023-03-20T14:12:10.554Z,100570.38
2023-03-20T14:14:56.784Z,100567.52
2023-03-20T14:17:29.190Z,100563.68
2023-03-20T14:19:57.800Z,100563.20
2023-03-20T14:22:30.760Z,100564.45
2023-03-20T14:25:25.091Z,100562.05
2023-03-20T14:27:54.766Z,100556.52
2023-03-20T14:30:51.400Z,100556.04
2023-03-20T14:33:26.280Z,100552.91
2023-03-20T14:36:22.695Z,100547.91
2023-03-20T14:39:00.309Z,100547.71
2023-03-20T14:41:38.974Z,100551.66
2023-03-20T14:44:36.088Z,100552.70
2023-03-20T14:47:10.807Z,100553.77
2023-03-20T14:49:42.899Z,100552.54
2023-03-20T14:52:15.343Z,100550.56
2023-03-20T14:54:43.677Z,100545.79
2023-03-20T14:57:26.551Z,100547.35
2023-03-20T14:59:54.826Z,100546.74
2023-03-20T15:02:28.419Z,100551.08
2023-03-20T15:05:01.125Z,100544.34
2023-03-20T15:07:31.804Z,100542.94
2023-03-20T15:10:03.067Z,100542.09
2023-03-20T15:12:35.338Z,100537.63
2023-03-20T15:15:05.994Z,100543.29
2023-03-20T15:17:41.990Z,100544.12
2023-03-20T15:20:28.918Z,100542.63
2023-03-20T15:23:01.296Z,100539.64
2023-03-20T15:25:42.196Z,100540.03
2023-03-20T15:28:21.903Z,100542.83
2023-03-20T15:30:53.803Z,100545.20
2023-03-20T15:33:35.416Z,100543.77
2023-03-20T15:36:09.092Z,100545.00
2023-03-20T15:38:37.499Z,100547.77
2023-03-20T15:41:07.584Z,100548.92
2023-03-20T15:43:37.004Z,100547.84
2023-03-20T15:46:17.975Z,100546.11
2023-03-20T15:48:48.990Z,100550.05
2023-03-20T15:51:19.884Z,100556.27
2023-03-20T15:53:48.442Z,100561.53
2023-03-20T15:56:19.471Z,100565.27
2023-03-20T15:58:49.844Z,100561.32
2023-03-20T16:01:21.205Z,100561.20
2023-03-20T16:03:49.648Z,100558.38
2023-03-20T16:06:21.598Z,100559.55
2023-03-20T16:09:01.626Z,100565.95
2023-03-20T16:11:38.735Z,100575.19
2023-03-20T16:14:32.041Z,100576.71
2023-03-20T16:17:01.350Z,100573.42
2023-03-20T16:19:30.106Z,100573.50
2023-03-20T16:22:33.750Z,100578.11
2023-03-20T16:25:02.387Z,100580.09
2023-03-20T16:27:33.946Z,100583.50
2023-03-20T16:30:06.994Z,100584.63
2023-03-20T16:32:39.089Z,100587.39
2023-03-20T16:35:16.624Z,100587.77
2023-03-20T16:37:53.214Z,100590.23
2023-03-20T16:40:34.094Z,100595.11
2023-03-20T16:43:30.351Z,100591.66
2023-03-20T16:46:03.938Z,100592.13
2023-03-20T16:48:34.678Z,100592.85
2023-03-20T16:51:26.423Z,100591.64
2023-03-20T16:53:58.521Z,100596.10
2023-03-20T16:56:40.582Z,100599.80
2023-03-20T16:59:09.716Z,100600.52
2023-03-20T17:01:41.479Z,100602.39
2023-03-20T17:04:18.394Z,100602.13
2023-03-20T17:07:09.854Z,100602.69
2023-03-20T17:09:38.269Z,100601.54
2023-03-20T17:12:18.162Z,100604.79
2023-03-20T17:14:50.920Z,100602.80
2023-03-20T17:17:23.237Z,100605.70
2023-03-20T17:19:53.364Z,100605.31
2023-03-20T17:22:24.553Z,100609.14
2023-03-20T17:24:55.944Z,100613.58
2023-03-20T17:27:25.645Z,100616.29
2023-03-20T17:29:57.597Z,100614.30
2023-03-20T17:32:26.276Z,100615.21
2023-03-20T17:34:55.104Z,100622.95
2023-03-20T17:37:29.730Z,100621.58
2023-03-20T17:40:00.935Z,100621.50
2023-03-20T17:42:32.484Z,100621.15
2023-03-20T17:45:03.403Z,100620.67
2023-03-20T17:47:45.731Z,100618.33
2023-03-20T17:50:30.452Z,100611.07
2023-03-20T17:52:58.812Z,100613.06
2023-03-20T17:55:27.566Z,100608.08
2023-03-20T17:57:56.427Z,100604.48
2023-03-20T18:00:31.394Z,100608.15
2023-03-20T18:02:59.785Z,100604.66
2023-03-20T18:05:28.818Z,100607.23
2023-03-20T18:07:57.258Z,100606.36
2023-03-20T18:10:32.218Z,100603.55
2023-03-20T18:13:02.440Z,100602.01
2023-03-20T18:15:32.391Z,100602.80
2023-03-20T18:18:01.476Z,100600.47
2023-03-20T18:20:31.646Z,100602.63
2023-03-20T18:23:01.146Z,100598.14
2023-03-20T18:25:30.644Z,100596.52
2023-03-20T18:28:00.977Z,100593.53
2023-03-20T18:30:37.128Z,100598.13
2023-03-20T18:33:10.066Z,100596.80
2023-03-20T18:35:39.289Z,100600.45
2023-03-20T18:38:21.624Z,100602.80
2023-03-20T18:40:50.253Z,100596.42
2023-03-20T18:43:21.047Z,100595.61
2023-03-20T18:45:51.664Z,100596.16
2023-03-20T18:48:42.090Z,100592.58
2023-03-20T18:51:11.964Z,100594.23
2023-03-20T18:53:43.664Z,100598.96
2023-03-20T18:56:17.540Z,100597.48
2023-03-20T18:58:49.109Z,100593.16
2023-03-20T19:01:17.458Z,100588.38
2023-03-20T19:03:46.428Z,100589.71
2023-03-20T19:06:17.342Z,100593.84
2023-03-20T19:08:46.826Z,100592.31
2023-03-20T19:11:17.878Z,100590.39
2023-03-20T19:13:51.313Z,100592.95
2023-03-20T19:16:24.757Z,100588.65
2023-03-20T19:18:55.480Z,100585.93
2023-03-20T19:21:26.578Z,100582.38
2023-03-20T19:24:05.611Z,100581.66
2023-03-20T19:26:36.008Z,100574.27
2023-03-20T19:29:10.751Z,100576.09
2023-03-20T19:31:40.004Z,100571.96
2023-03-20T19:34:21.216Z,100572.02
2023-03-20T19:37:06.959Z,100573.15
2023-03-20T19:39:36.369Z,100574.98
2023-03-20T19:42:30.361Z,100577.34
2023-03-20T19:45:14.241Z,100578.54
2023-03-20T19:47:42.722Z,100574.40
2023-03-20T19:50:36.260Z,100574.77
2023-03-20T19:53:10.285Z,100573.23
2023-03-20T19:55:39.016Z,100568.64
2023-03-20T19:58:08.629Z,100573.39
2023-03-20T20:03:30.574Z,100566.95
2023-03-20T20:06:02.779Z,100570.64
2023-03-20T20:08:45.190Z,100565.84
2023-03-20T20:11:21.316Z,100570.14
2023-03-20T20:14:08.148Z,100567.66
2023-03-20T20:16:40.256Z,100564.81
2023-03-20T20:19:12.186Z,100562.59
2023-03-20T20:24:32.007Z,100563.10
2023-03-20T20:27:16.313Z,100563.72
2023-03-20T20:29:50.650Z,100561.17
2023-03-20T20:32:24.766Z,100560.20
2023-03-20T20:38:33.648Z,100557.04
2023-03-20T20:40:44.667Z,100551.20
2023-03-20T20:43:34.845Z,100550.39
2023-03-20T20:46:02.362Z,100547.66
2023-03-20T20:48:31.845Z,100545.85
2023-03-20T20:51:01.348Z,100546.98
2023-03-20T20:53:31.135Z,100547.08
2023-03-20T20:55:59.834Z,100549.39
2023-03-20T20:58:29.364Z,100550.27
2023-03-20T21:00:58.599Z,100549.98
2023-03-20T21:03:29.169Z,100546.73
2023-03-20T21:06:04.233Z,100547.44
2023-03-20T21:08:34.980Z,100544.20
2023-03-20T21:11:13.647Z,100548.21
2023-03-20T21:13:42.940Z,100545.67
2023-03-20T21:16:12.617Z,100541.38
2023-03-20T21:18:47.189Z,100540.53
2023-03-20T21:21:16.192Z,100542.01
2023-03-20T21:23:44.482Z,100542.59
2023-03-20T21:26:15.041Z,100540.39
2023-03-20T21:28:43.434Z,100538.36
2023-03-20T21:31:24.808Z,100537.09
2023-03-20T21:33:55.586Z,100533.56
2023-03-20T21:36:24.082Z,100530.61
2023-03-20T21:39:09.290Z,100527.54
2023-03-20T21:41:38.510Z,100526.05
2023-03-20T21:44:07.634Z,100529.28
2023-03-20T21:55:52.125Z,100530.82
2023-03-20T22:04:54.630Z,100526.38
2023-03-20T22:13:24.589Z,100525.08
2023-03-20T22:15:39.426Z,100518.55
2023-03-20T22:18:38.396Z,100519.08
2023-03-20T22:21:31.692Z,100521.86
2023-03-20T22:24:24.776Z,100520.59
2023-03-20T22:30:01.594Z,100513.79
2023-03-20T22:32:44.162Z,100507.05
2023-03-20T22:41:21.892Z,100498.80
2023-03-20T22:44:13.653Z,100497.81
2023-03-20T22:46:32.478Z,100495.65
2023-03-20T22:48:56.975Z,100490.44
2023-03-20T22:51:32.637Z,100490.52
2023-03-20T22:54:06.011Z,100491.06
2023-03-20T22:56:36.305Z,100489.90
2023-03-20T22:59:05.083Z,100485.52
2023-03-20T23:01:33.871Z,100485.63
2023-03-20T23:04:02.093Z,100483.62
2023-03-20T23:06:35.483Z,100484.34
2023-03-20T23:09:14.427Z,100485.37
2023-03-20T23:11:44.079Z,100487.52
2023-03-20T23:14:25.024Z,100485.86
2023-03-20T23:16:55.712Z,100480.73
2023-03-20T23:19:25.410Z,100483.75
2023-03-20T23:21:53.940Z,100481.73
2023-03-20T23:24:22.513Z,100477.84
2023-03-20T23:26:52.760Z,100471.66
2023-03-20T23:29:21.545Z,100467.13
2023-03-20T23:31:49.812Z,100465.30
2023-03-20T23:34:18.973Z,100463.40
2023-03-20T23:36:47.792Z,100466.55
2023-03-20T23:39:16.236Z,100465.05
2023-03-20T23:44:32.949Z,100467.91
2023-03-20T23:47:03.304Z,100464.38
2023-03-20T23:49:32.188Z,100459.58
2023-03-20T23:52:00.345Z,100458.39
2023-03-20T23:54:28.621Z,100458.09
2023-03-20T23:56:57.325Z,100459.98
2023-03-20T23:59:25.699Z,100456.55
